sensor_id;sensor_type;location;lat;lon;timestamp;temperature;humidity
45761;DHT22;31471;51.040;14.414;2023-02-28T00:00:44;-1.20;99.90
45761;DHT22;31471;51.040;14.414;2023-02-28T00:03:09;-1.10;99.90
45761;DHT22;31471;51.040;14.414;2023-02-28T00:05:35;-1.10;99.90
45761;DHT22;31471;51.040;14.414;2023-02-28T00:08:00;-1.20;99.90
45761;DHT22;31471;51.040;14.414;2023-02-28T00:10:27;-1.20;99.90
45761;DHT22;31471;51.040;14.414;2023-02-28T00:12:53;-1.20;99.90
45761;DHT22;31471;51.040;14.414;2023-02-28T00:15:19;-1.40;99.90
45761;DHT22;31471;51.040;14.414;2023-02-28T00:17:45;-1.40;99.90
45761;DHT22;31471;51.040;14.414;2023-02-28T00:20:11;-1.10;99.90
45761;DHT22;31471;51.040;14.414;2023-02-28T00:22:41;-1.40;99.90
45761;DHT22;31471;51.040;14.414;2023-02-28T00:25:07;-1.70;99.90
45761;DHT22;31471;51.040;14.414;2023-02-28T00:27:34;-1.40;99.90
45761;DHT22;31471;51.040;14.414;2023-02-28T00:30:00;-1.80;99.90
45761;DHT22;31471;51.040;14.414;2023-02-28T00:32:26;-1.50;99.90
45761;DHT22;31471;51.040;14.414;2023-02-28T00:34:51;-1.40;99.90
45761;DHT22;31471;51.040;14.414;2023-02-28T00:37:17;-1.80;99.90
45761;DHT22;31471;51.040;14.414;2023-02-28T00:39:42;-1.70;99.90
45761;DHT22;31471;51.040;14.414;2023-02-28T00:42:08;-1.60;99.90
45761;DHT22;31471;51.040;14.414;2023-02-28T00:44:33;-1.70;99.90
45761;DHT22;31471;51.040;14.414;2023-02-28T00:46:59;-2.00;99.90
45761;DHT22;31471;51.040;14.414;2023-02-28T00:49:26;-2.00;99.90
45761;DHT22;31471;51.040;14.414;2023-02-28T00:51:52;-1.80;99.90
45761;DHT22;31471;51.040;14.414;2023-02-28T00:54:18;-2.00;99.90
45761;DHT22;31471;51.040;14.414;2023-02-28T00:56:46;-2.10;99.90
45761;DHT22;31471;51.040;14.414;2023-02-28T00:59:12;-2.30;99.90
45761;DHT22;31471;51.040;14.414;2023-02-28T01:01:38;-2.40;99.90
45761;DHT22;31471;51.040;14.414;2023-02-28T01:04:05;-2.30;99.90
45761;DHT22;31471;51.040;14.414;2023-02-28T01:06:30;-2.60;99.90
45761;DHT22;31471;51.040;14.414;2023-02-28T01:08:57;-2.60;99.90
45761;DHT22;31471;51.040;14.414;2023-02-28T01:11:22;-2.50;99.90
45761;DHT22;31471;51.040;14.414;2023-02-28T01:13:47;-2.50;99.90
45761;DHT22;31471;51.040;14.414;2023-02-28T01:16:13;-2.30;99.90
45761;DHT22;31471;51.040;14.414;2023-02-28T01:18:38;-2.40;99.90
45761;DHT22;31471;51.040;14.414;2023-02-28T01:21:05;-2.60;99.90
45761;DHT22;31471;51.040;14.414;2023-02-28T01:23:30;-2.90;99.90
45761;DHT22;31471;51.040;14.414;2023-02-28T01:25:56;-2.90;99.90
45761;DHT22;31471;51.040;14.414;2023-02-28T01:28:21;-2.70;99.90
45761;DHT22;31471;51.040;14.414;2023-02-28T01:30:47;-2.60;99.90
45761;DHT22;31471;51.040;14.414;2023-02-28T01:33:13;-2.70;99.90
45761;DHT22;31471;51.040;14.414;2023-02-28T01:35:39;-2.90;99.90
45761;DHT22;31471;51.040;14.414;2023-02-28T01:38:04;-3.20;99.90
45761;DHT22;31471;51.040;14.414;2023-02-28T01:40:29;-3.10;99.90
45761;DHT22;31471;51.040;14.414;2023-02-28T01:42:55;-3.10;99.90
45761;DHT22;31471;51.040;14.414;2023-02-28T01:45:27;-3.30;99.90
45761;DHT22;31471;51.040;14.414;2023-02-28T01:47:55;-3.20;99.90
45761;DHT22;31471;51.040;14.414;2023-02-28T01:50:23;-3.10;99.90
45761;DHT22;31471;51.040;14.414;2023-02-28T01:52:50;-2.90;99.90
45761;DHT22;31471;51.040;14.414;2023-02-28T01:55:17;-3.30;99.90
45761;DHT22;31471;51.040;14.414;2023-02-28T01:57:48;-3.70;99.90
45761;DHT22;31471;51.040;14.414;2023-02-28T02:00:16;-3.50;99.90
45761;DHT22;31471;51.040;14.414;2023-02-28T02:02:46;-3.50;99.90
45761;DHT22;31471;51.040;14.414;2023-02-28T02:05:14;-3.30;99.90
45761;DHT22;31471;51.040;14.414;2023-02-28T02:07:41;-3.40;99.90
45761;DHT22;31471;51.040;14.414;2023-02-28T02:10:19;-3.50;99.90
45761;DHT22;31471;51.040;14.414;2023-02-28T02:15:31;-3.60;99.90
45761;DHT22;31471;51.040;14.414;2023-02-28T02:17:58;-4.10;99.90
45761;DHT22;31471;51.040;14.414;2023-02-28T02:20:32;-4.20;99.90
45761;DHT22;31471;51.040;14.414;2023-02-28T02:28:13;-3.70;99.90
45761;DHT22;31471;51.040;14.414;2023-02-28T02:30:44;-3.70;99.90
45761;DHT22;31471;51.040;14.414;2023-02-28T02:35:49;-3.90;99.90
45761;DHT22;31471;51.040;14.414;2023-02-28T02:38:34;-4.30;99.90
45761;DHT22;31471;51.040;14.414;2023-02-28T02:41:14;-4.10;99.90
45761;DHT22;31471;51.040;14.414;2023-02-28T02:46:28;-4.20;99.90
45761;DHT22;31471;51.040;14.414;2023-02-28T02:48:55;-4.20;99.90
45761;DHT22;31471;51.040;14.414;2023-02-28T02:51:21;-4.00;99.90
45761;DHT22;31471;51.040;14.414;2023-02-28T02:53:52;-4.70;99.90
45761;DHT22;31471;51.040;14.414;2023-02-28T02:56:19;-4.50;99.90
45761;DHT22;31471;51.040;14.414;2023-02-28T02:58:47;-4.40;99.90
45761;DHT22;31471;51.040;14.414;2023-02-28T03:01:15;-4.70;99.90
45761;DHT22;31471;51.040;14.414;2023-02-28T03:03:41;-4.30;99.90
45761;DHT22;31471;51.040;14.414;2023-02-28T03:06:07;-4.70;99.90
45761;DHT22;31471;51.040;14.414;2023-02-28T03:08:34;-4.90;99.90
45761;DHT22;31471;51.040;14.414;2023-02-28T03:11:01;-4.90;99.90
45761;DHT22;31471;51.040;14.414;2023-02-28T03:16:28;-5.10;99.90
45761;DHT22;31471;51.040;14.414;2023-02-28T03:21:40;-4.90;99.90
45761;DHT22;31471;51.040;14.414;2023-02-28T03:24:29;-4.60;99.90
45761;DHT22;31471;51.040;14.414;2023-02-28T03:27:11;-4.80;99.90
45761;DHT22;31471;51.040;14.414;2023-02-28T03:29:45;-4.50;99.90
45761;DHT22;31471;51.040;14.414;2023-02-28T03:34:41;-5.40;99.90
45761;DHT22;31471;51.040;14.414;2023-02-28T03:37:09;-4.90;99.90
45761;DHT22;31471;51.040;14.414;2023-02-28T03:39:38;-5.20;99.90
45761;DHT22;31471;51.040;14.414;2023-02-28T03:42:14;-5.10;99.90
45761;DHT22;31471;51.040;14.414;2023-02-28T03:44:42;-5.30;99.90
45761;DHT22;31471;51.040;14.414;2023-02-28T03:47:09;-4.90;99.90
45761;DHT22;31471;51.040;14.414;2023-02-28T03:49:59;-5.40;99.90
45761;DHT22;31471;51.040;14.414;2023-02-28T03:52:22;-5.20;99.90
45761;DHT22;31471;51.040;14.414;2023-02-28T03:54:50;-5.10;99.90
45761;DHT22;31471;51.040;14.414;2023-02-28T04:00:08;-5.50;99.90
45761;DHT22;31471;51.040;14.414;2023-02-28T04:02:38;-5.20;99.90
45761;DHT22;31471;51.040;14.414;2023-02-28T04:05:05;-5.40;99.90
45761;DHT22;31471;51.040;14.414;2023-02-28T04:07:31;-5.50;99.90
45761;DHT22;31471;51.040;14.414;2023-02-28T04:09:57;-5.60;99.90
45761;DHT22;31471;51.040;14.414;2023-02-28T04:12:22;-5.50;99.90
45761;DHT22;31471;51.040;14.414;2023-02-28T04:14:48;-5.50;99.90
45761;DHT22;31471;51.040;14.414;2023-02-28T04:17:14;-5.70;99.90
45761;DHT22;31471;51.040;14.414;2023-02-28T04:19:40;-5.60;99.90
45761;DHT22;31471;51.040;14.414;2023-02-28T04:22:05;-5.70;99.90
45761;DHT22;31471;51.040;14.414;2023-02-28T04:24:30;-5.70;99.90
45761;DHT22;31471;51.040;14.414;2023-02-28T04:26:56;-5.50;99.90
45761;DHT22;31471;51.040;14.414;2023-02-28T04:29:26;-5.30;99.90
45761;DHT22;31471;51.040;14.414;2023-02-28T04:31:52;-5.20;99.90
45761;DHT22;31471;51.040;14.414;2023-02-28T04:34:24;-5.20;99.90
45761;DHT22;31471;51.040;14.414;2023-02-28T04:36:50;-5.40;99.90
45761;DHT22;31471;51.040;14.414;2023-02-28T04:39:16;-5.20;99.90
45761;DHT22;31471;51.040;14.414;2023-02-28T04:41:44;-5.20;99.90
45761;DHT22;31471;51.040;14.414;2023-02-28T04:44:09;-5.30;99.90
45761;DHT22;31471;51.040;14.414;2023-02-28T04:46:34;-5.20;99.90
45761;DHT22;31471;51.040;14.414;2023-02-28T04:49:00;-5.10;99.90
45761;DHT22;31471;51.040;14.414;2023-02-28T04:51:25;-5.10;99.90
45761;DHT22;31471;51.040;14.414;2023-02-28T04:53:51;-5.20;99.90
45761;DHT22;31471;51.040;14.414;2023-02-28T04:56:17;-5.30;99.90
45761;DHT22;31471;51.040;14.414;2023-02-28T04:58:43;-5.30;99.90
45761;DHT22;31471;51.040;14.414;2023-02-28T05:01:19;-5.40;99.90
45761;DHT22;31471;51.040;14.414;2023-02-28T05:03:45;-5.30;99.90
45761;DHT22;31471;51.040;14.414;2023-02-28T05:06:11;-5.30;99.90
45761;DHT22;31471;51.040;14.414;2023-02-28T05:08:37;-5.30;99.90
45761;DHT22;31471;51.040;14.414;2023-02-28T05:11:03;-5.10;99.90
45761;DHT22;31471;51.040;14.414;2023-02-28T05:13:29;-5.10;99.90
45761;DHT22;31471;51.040;14.414;2023-02-28T05:15:55;-5.20;99.90
45761;DHT22;31471;51.040;14.414;2023-02-28T05:18:20;-5.20;99.90
45761;DHT22;31471;51.040;14.414;2023-02-28T05:20:46;-5.10;99.90
45761;DHT22;31471;51.040;14.414;2023-02-28T05:23:12;-5.10;99.90
45761;DHT22;31471;51.040;14.414;2023-02-28T05:25:38;-5.10;99.90
45761;DHT22;31471;51.040;14.414;2023-02-28T05:28:04;-5.10;99.90
45761;DHT22;31471;51.040;14.414;2023-02-28T05:30:29;-5.00;99.90
45761;DHT22;31471;51.040;14.414;2023-02-28T05:32:55;-5.00;99.90
45761;DHT22;31471;51.040;14.414;2023-02-28T05:35:20;-4.90;99.90
45761;DHT22;31471;51.040;14.414;2023-02-28T05:37:46;-5.00;99.90
45761;DHT22;31471;51.040;14.414;2023-02-28T05:40:11;-5.00;99.90
45761;DHT22;31471;51.040;14.414;2023-02-28T05:42:37;-5.10;99.90
45761;DHT22;31471;51.040;14.414;2023-02-28T05:45:03;-4.90;99.90
45761;DHT22;31471;51.040;14.414;2023-02-28T05:47:29;-4.90;99.90
45761;DHT22;31471;51.040;14.414;2023-02-28T05:49:54;-5.00;99.90
45761;DHT22;31471;51.040;14.414;2023-02-28T05:52:19;-4.90;99.90
45761;DHT22;31471;51.040;14.414;2023-02-28T05:54:46;-5.00;99.90
45761;DHT22;31471;51.040;14.414;2023-02-28T05:57:11;-5.10;99.90
45761;DHT22;31471;51.040;14.414;2023-02-28T05:59:37;-5.00;99.90
45761;DHT22;31471;51.040;14.414;2023-02-28T06:02:12;-5.00;99.90
45761;DHT22;31471;51.040;14.414;2023-02-28T06:04:37;-5.00;99.90
45761;DHT22;31471;51.040;14.414;2023-02-28T06:07:03;-4.90;99.90
45761;DHT22;31471;51.040;14.414;2023-02-28T06:09:28;-5.10;99.90
45761;DHT22;31471;51.040;14.414;2023-02-28T06:11:54;-5.10;99.90
45761;DHT22;31471;51.040;14.414;2023-02-28T06:14:20;-4.90;99.90
45761;DHT22;31471;51.040;14.414;2023-02-28T06:16:46;-4.80;99.90
45761;DHT22;31471;51.040;14.414;2023-02-28T06:19:11;-5.10;99.90
45761;DHT22;31471;51.040;14.414;2023-02-28T06:21:38;-5.30;99.90
45761;DHT22;31471;51.040;14.414;2023-02-28T06:24:03;-5.30;99.90
45761;DHT22;31471;51.040;14.414;2023-02-28T06:26:29;-5.30;99.90
45761;DHT22;31471;51.040;14.414;2023-02-28T06:28:55;-5.40;99.90
45761;DHT22;31471;51.040;14.414;2023-02-28T06:31:20;-5.50;99.90
45761;DHT22;31471;51.040;14.414;2023-02-28T06:33:46;-5.30;99.90
45761;DHT22;31471;51.040;14.414;2023-02-28T06:36:12;-5.20;99.90
45761;DHT22;31471;51.040;14.414;2023-02-28T06:38:38;-5.30;99.90
45761;DHT22;31471;51.040;14.414;2023-02-28T06:41:04;-5.30;99.90
45761;DHT22;31471;51.040;14.414;2023-02-28T06:43:32;-5.40;99.90
45761;DHT22;31471;51.040;14.414;2023-02-28T06:45:58;-5.10;99.90
45761;DHT22;31471;51.040;14.414;2023-02-28T06:48:25;-4.90;99.90
45761;DHT22;31471;51.040;14.414;2023-02-28T06:50:51;-4.90;99.90
45761;DHT22;31471;51.040;14.414;2023-02-28T06:53:16;-5.00;99.90
45761;DHT22;31471;51.040;14.414;2023-02-28T06:55:42;-5.00;99.90
45761;DHT22;31471;51.040;14.414;2023-02-28T06:58:07;-4.90;99.90
45761;DHT22;31471;51.040;14.414;2023-02-28T07:00:45;-4.90;99.90
45761;DHT22;31471;51.040;14.414;2023-02-28T07:03:11;-4.90;99.90
45761;DHT22;31471;51.040;14.414;2023-02-28T07:05:38;-4.90;99.90
45761;DHT22;31471;51.040;14.414;2023-02-28T07:08:03;-4.90;99.90
45761;DHT22;31471;51.040;14.414;2023-02-28T07:10:29;-4.80;99.90
45761;DHT22;31471;51.040;14.414;2023-02-28T07:12:55;-4.70;99.90
45761;DHT22;31471;51.040;14.414;2023-02-28T07:15:20;-4.60;99.90
45761;DHT22;31471;51.040;14.414;2023-02-28T07:17:46;-4.50;99.90
45761;DHT22;31471;51.040;14.414;2023-02-28T07:20:11;-4.30;99.90
45761;DHT22;31471;51.040;14.414;2023-02-28T07:22:37;-4.30;99.90
45761;DHT22;31471;51.040;14.414;2023-02-28T07:25:04;-4.20;99.90
45761;DHT22;31471;51.040;14.414;2023-02-28T07:27:29;-4.00;99.90
45761;DHT22;31471;51.040;14.414;2023-02-28T07:29:55;-3.90;99.90
45761;DHT22;31471;51.040;14.414;2023-02-28T07:32:20;-3.60;99.90
45761;DHT22;31471;51.040;14.414;2023-02-28T07:34:46;-3.50;99.90
45761;DHT22;31471;51.040;14.414;2023-02-28T07:37:11;-3.40;99.90
45761;DHT22;31471;51.040;14.414;2023-02-28T07:39:37;-3.60;99.90
45761;DHT22;31471;51.040;14.414;2023-02-28T07:42:06;-3.70;99.90
45761;DHT22;31471;51.040;14.414;2023-02-28T07:44:34;-3.60;99.90
45761;DHT22;31471;51.040;14.414;2023-02-28T07:47:00;-3.30;99.90
45761;DHT22;31471;51.040;14.414;2023-02-28T07:49:26;-2.90;99.90
45761;DHT22;31471;51.040;14.414;2023-02-28T07:51:51;-2.70;99.90
45761;DHT22;31471;51.040;14.414;2023-02-28T07:54:17;-2.60;99.90
45761;DHT22;31471;51.040;14.414;2023-02-28T07:56:42;-2.30;99.90
45761;DHT22;31471;51.040;14.414;2023-02-28T07:59:08;-2.30;99.90
45761;DHT22;31471;51.040;14.414;2023-02-28T08:01:34;-2.40;99.90
45761;DHT22;31471;51.040;14.414;2023-02-28T08:04:00;-2.40;99.90
45761;DHT22;31471;51.040;14.414;2023-02-28T08:06:25;-2.20;99.90
45761;DHT22;31471;51.040;14.414;2023-02-28T08:08:52;-1.80;99.90
45761;DHT22;31471;51.040;14.414;2023-02-28T08:11:18;-1.80;99.90
45761;DHT22;31471;51.040;14.414;2023-02-28T08:13:43;-1.80;99.90
45761;DHT22;31471;51.040;14.414;2023-02-28T08:16:09;-1.80;99.90
45761;DHT22;31471;51.040;14.414;2023-02-28T08:18:35;-1.90;99.90
45761;DHT22;31471;51.040;14.414;2023-02-28T08:21:07;-1.80;99.90
45761;DHT22;31471;51.040;14.414;2023-02-28T08:23:33;-1.50;99.90
45761;DHT22;31471;51.040;14.414;2023-02-28T08:25:58;-1.30;99.90
45761;DHT22;31471;51.040;14.414;2023-02-28T08:28:24;-1.20;99.90
45761;DHT22;31471;51.040;14.414;2023-02-28T08:30:50;-0.90;99.90
45761;DHT22;31471;51.040;14.414;2023-02-28T08:33:15;-0.70;99.90
45761;DHT22;31471;51.040;14.414;2023-02-28T08:35:41;-0.60;99.90
45761;DHT22;31471;51.040;14.414;2023-02-28T08:38:06;-0.40;99.90
45761;DHT22;31471;51.040;14.414;2023-02-28T08:40:32;-0.20;99.90
45761;DHT22;31471;51.040;14.414;2023-02-28T08:42:57;-0.10;99.90
45761;DHT22;31471;51.040;14.414;2023-02-28T08:45:23;-0.20;99.90
45761;DHT22;31471;51.040;14.414;2023-02-28T08:47:49;-0.10;99.90
45761;DHT22;31471;51.040;14.414;2023-02-28T08:50:15;0.10;99.90
45761;DHT22;31471;51.040;14.414;2023-02-28T08:52:42;0.50;99.90
45761;DHT22;31471;51.040;14.414;2023-02-28T08:55:08;0.60;99.90
45761;DHT22;31471;51.040;14.414;2023-02-28T08:57:34;0.90;99.90
45761;DHT22;31471;51.040;14.414;2023-02-28T09:00:00;0.90;99.90
45761;DHT22;31471;51.040;14.414;2023-02-28T09:02:26;1.10;99.90
45761;DHT22;31471;51.040;14.414;2023-02-28T09:04:52;1.10;99.90
45761;DHT22;31471;51.040;14.414;2023-02-28T09:07:17;1.00;99.90
45761;DHT22;31471;51.040;14.414;2023-02-28T09:09:43;0.80;99.90
45761;DHT22;31471;51.040;14.414;2023-02-28T09:12:19;0.60;99.90
45761;DHT22;31471;51.040;14.414;2023-02-28T09:14:45;0.70;99.90
45761;DHT22;31471;51.040;14.414;2023-02-28T09:17:10;0.70;99.90
45761;DHT22;31471;51.040;14.414;2023-02-28T09:19:36;0.90;99.90
45761;DHT22;31471;51.040;14.414;2023-02-28T09:22:02;0.90;99.90
45761;DHT22;31471;51.040;14.414;2023-02-28T09:24:27;0.60;99.90
45761;DHT22;31471;51.040;14.414;2023-02-28T09:26:53;0.80;99.90
45761;DHT22;31471;51.040;14.414;2023-02-28T09:29:18;1.00;99.90
45761;DHT22;31471;51.040;14.414;2023-02-28T09:31:44;1.00;99.90
45761;DHT22;31471;51.040;14.414;2023-02-28T09:34:10;1.20;99.90
45761;DHT22;31471;51.040;14.414;2023-02-28T09:36:35;1.60;99.90
45761;DHT22;31471;51.040;14.414;2023-02-28T09:39:03;1.80;99.90
45761;DHT22;31471;51.040;14.414;2023-02-28T09:41:31;2.20;99.90
45761;DHT22;31471;51.040;14.414;2023-02-28T09:44:00;2.40;99.90
45761;DHT22;31471;51.040;14.414;2023-02-28T09:46:30;2.50;99.90
45761;DHT22;31471;51.040;14.414;2023-02-28T09:48:57;2.60;99.90
45761;DHT22;31471;51.040;14.414;2023-02-28T09:51:37;2.50;99.90
45761;DHT22;31471;51.040;14.414;2023-02-28T09:54:05;2.60;99.90
45761;DHT22;31471;51.040;14.414;2023-02-28T09:56:39;2.50;98.40
45761;DHT22;31471;51.040;14.414;2023-02-28T10:04:27;2.70;99.30
45761;DHT22;31471;51.040;14.414;2023-02-28T10:06:59;2.50;98.80
45761;DHT22;31471;51.040;14.414;2023-02-28T10:09:29;2.60;98.30
45761;DHT22;31471;51.040;14.414;2023-02-28T10:11:56;2.70;99.60
45761;DHT22;31471;51.040;14.414;2023-02-28T10:14:26;2.80;98.10
45761;DHT22;31471;51.040;14.414;2023-02-28T10:17:00;2.80;98.30
45761;DHT22;31471;51.040;14.414;2023-02-28T10:19:28;2.90;98.40
45761;DHT22;31471;51.040;14.414;2023-02-28T10:22:10;3.00;99.90
45761;DHT22;31471;51.040;14.414;2023-02-28T10:24:44;2.90;98.10
45761;DHT22;31471;51.040;14.414;2023-02-28T10:29:40;3.20;98.80
45761;DHT22;31471;51.040;14.414;2023-02-28T10:32:08;3.10;97.90
45761;DHT22;31471;51.040;14.414;2023-02-28T10:34:36;2.90;97.80
45761;DHT22;31471;51.040;14.414;2023-02-28T10:37:01;3.00;95.70
45761;DHT22;31471;51.040;14.414;2023-02-28T10:42:04;2.90;97.40
45761;DHT22;31471;51.040;14.414;2023-02-28T10:44:30;2.90;97.00
45761;DHT22;31471;51.040;14.414;2023-02-28T10:46:55;2.90;97.60
45761;DHT22;31471;51.040;14.414;2023-02-28T10:49:23;3.00;97.00
45761;DHT22;31471;51.040;14.414;2023-02-28T10:51:54;2.80;96.70
45761;DHT22;31471;51.040;14.414;2023-02-28T10:54:28;2.90;97.10
45761;DHT22;31471;51.040;14.414;2023-02-28T10:59:32;3.00;97.00
45761;DHT22;31471;51.040;14.414;2023-02-28T11:01:57;3.10;96.90
45761;DHT22;31471;51.040;14.414;2023-02-28T11:06:58;3.20;96.90
45761;DHT22;31471;51.040;14.414;2023-02-28T11:11:49;2.90;96.40
45761;DHT22;31471;51.040;14.414;2023-02-28T11:14:25;2.90;97.50
45761;DHT22;31471;51.040;14.414;2023-02-28T11:16:51;2.80;97.20
45761;DHT22;31471;51.040;14.414;2023-02-28T11:19:19;2.60;95.50
45761;DHT22;31471;51.040;14.414;2023-02-28T11:21:53;2.60;95.60
45761;DHT22;31471;51.040;14.414;2023-02-28T11:26:48;2.30;97.90
45761;DHT22;31471;51.040;14.414;2023-02-28T11:29:19;2.00;97.80
45761;DHT22;31471;51.040;14.414;2023-02-28T11:32:00;2.10;98.40
45761;DHT22;31471;51.040;14.414;2023-02-28T11:34:26;2.20;98.40
45761;DHT22;31471;51.040;14.414;2023-02-28T11:36:54;2.10;97.40
45761;DHT22;31471;51.040;14.414;2023-02-28T11:39:19;2.40;99.00
45761;DHT22;31471;51.040;14.414;2023-02-28T11:41:55;2.40;98.00
45761;DHT22;31471;51.040;14.414;2023-02-28T11:47:00;2.40;97.60
45761;DHT22;31471;51.040;14.414;2023-02-28T11:49:35;2.30;97.20
45761;DHT22;31471;51.040;14.414;2023-02-28T11:52:17;2.20;98.50
45761;DHT22;31471;51.040;14.414;2023-02-28T11:55:01;2.40;96.80
45761;DHT22;31471;51.040;14.414;2023-02-28T12:02:22;2.50;96.30
45761;DHT22;31471;51.040;14.414;2023-02-28T12:07:26;2.10;97.40
45761;DHT22;31471;51.040;14.414;2023-02-28T12:10:04;2.30;98.70
45761;DHT22;31471;51.040;14.414;2023-02-28T12:12:36;2.40;98.50
45761;DHT22;31471;51.040;14.414;2023-02-28T12:20:34;2.40;98.40
45761;DHT22;31471;51.040;14.414;2023-02-28T12:28:17;2.50;96.90
45761;DHT22;31471;51.040;14.414;2023-02-28T12:30:49;2.60;98.70
45761;DHT22;31471;51.040;14.414;2023-02-28T12:33:16;2.50;97.90
45761;DHT22;31471;51.040;14.414;2023-02-28T12:36:16;2.80;98.00
45761;DHT22;31471;51.040;14.414;2023-02-28T12:38:43;2.80;98.50
45761;DHT22;31471;51.040;14.414;2023-02-28T12:41:12;2.60;95.10
45761;DHT22;31471;51.040;14.414;2023-02-28T12:43:41;2.60;94.90
45761;DHT22;31471;51.040;14.414;2023-02-28T12:46:18;2.40;94.90
45761;DHT22;31471;51.040;14.414;2023-02-28T12:48:48;2.40;95.50
45761;DHT22;31471;51.040;14.414;2023-02-28T12:51:17;2.40;96.10
45761;DHT22;31471;51.040;14.414;2023-02-28T12:53:49;2.40;96.60
45761;DHT22;31471;51.040;14.414;2023-02-28T12:56:24;2.60;97.60
45761;DHT22;31471;51.040;14.414;2023-02-28T12:58:57;2.50;95.00
45761;DHT22;31471;51.040;14.414;2023-02-28T13:01:42;2.70;98.40
45761;DHT22;31471;51.040;14.414;2023-02-28T13:04:32;2.60;97.30
45761;DHT22;31471;51.040;14.414;2023-02-28T13:09:33;2.70;98.20
45761;DHT22;31471;51.040;14.414;2023-02-28T13:11:58;2.70;97.50
45761;DHT22;31471;51.040;14.414;2023-02-28T13:14:28;2.80;97.90
45761;DHT22;31471;51.040;14.414;2023-02-28T13:16:56;2.80;99.10
45761;DHT22;31471;51.040;14.414;2023-02-28T13:19:23;2.90;97.70
45761;DHT22;31471;51.040;14.414;2023-02-28T13:21:49;2.90;95.00
45761;DHT22;31471;51.040;14.414;2023-02-28T13:29:32;2.80;97.40
45761;DHT22;31471;51.040;14.414;2023-02-28T13:34:31;2.60;96.50
45761;DHT22;31471;51.040;14.414;2023-02-28T13:47:36;2.50;95.50
45761;DHT22;31471;51.040;14.414;2023-02-28T13:50:21;2.50;95.30
45761;DHT22;31471;51.040;14.414;2023-02-28T13:52:58;2.60;95.20
45761;DHT22;31471;51.040;14.414;2023-02-28T13:58:08;2.40;97.00
45761;DHT22;31471;51.040;14.414;2023-02-28T14:05:46;2.70;97.70
45761;DHT22;31471;51.040;14.414;2023-02-28T14:08:13;2.50;95.10
45761;DHT22;31471;51.040;14.414;2023-02-28T14:10:45;2.60;96.90
45761;DHT22;31471;51.040;14.414;2023-02-28T14:15:44;2.50;96.50
45761;DHT22;31471;51.040;14.414;2023-02-28T14:18:21;2.40;96.30
45761;DHT22;31471;51.040;14.414;2023-02-28T14:20:48;2.70;97.60
45761;DHT22;31471;51.040;14.414;2023-02-28T14:23:24;2.80;97.40
45761;DHT22;31471;51.040;14.414;2023-02-28T14:26:01;2.90;97.60
45761;DHT22;31471;51.040;14.414;2023-02-28T14:31:10;2.80;97.10
45761;DHT22;31471;51.040;14.414;2023-02-28T14:36:38;2.70;97.10
45761;DHT22;31471;51.040;14.414;2023-02-28T14:39:06;2.60;96.70
45761;DHT22;31471;51.040;14.414;2023-02-28T14:41:33;2.60;97.30
45761;DHT22;31471;51.040;14.414;2023-02-28T14:44:17;2.60;98.10
45761;DHT22;31471;51.040;14.414;2023-02-28T14:46:43;2.60;97.40
45761;DHT22;31471;51.040;14.414;2023-02-28T14:49:12;2.60;97.00
45761;DHT22;31471;51.040;14.414;2023-02-28T14:51:38;2.40;96.40
45761;DHT22;31471;51.040;14.414;2023-02-28T14:54:04;2.40;98.20
45761;DHT22;31471;51.040;14.414;2023-02-28T14:56:32;2.40;98.00
45761;DHT22;31471;51.040;14.414;2023-02-28T14:58:59;2.40;99.10
45761;DHT22;31471;51.040;14.414;2023-02-28T15:01:25;2.50;98.20
45761;DHT22;31471;51.040;14.414;2023-02-28T15:03:58;2.20;97.40
45761;DHT22;31471;51.040;14.414;2023-02-28T15:06:24;2.20;99.20
45761;DHT22;31471;51.040;14.414;2023-02-28T15:09:06;2.10;97.80
45761;DHT22;31471;51.040;14.414;2023-02-28T15:11:33;2.00;97.40
45761;DHT22;31471;51.040;14.414;2023-02-28T15:13:58;2.00;98.40
45761;DHT22;31471;51.040;14.414;2023-02-28T15:16:26;2.00;99.50
45761;DHT22;31471;51.040;14.414;2023-02-28T15:18:56;2.00;99.70
45761;DHT22;31471;51.040;14.414;2023-02-28T15:21:57;2.00;99.90
45761;DHT22;31471;51.040;14.414;2023-02-28T15:24:19;2.00;98.70
45761;DHT22;31471;51.040;14.414;2023-02-28T15:26:51;2.00;99.90
45761;DHT22;31471;51.040;14.414;2023-02-28T15:29:22;2.00;99.90
45761;DHT22;31471;51.040;14.414;2023-02-28T15:32:00;2.00;99.90
45761;DHT22;31471;51.040;14.414;2023-02-28T15:34:28;1.90;99.90
45761;DHT22;31471;51.040;14.414;2023-02-28T15:36:54;1.90;99.90
45761;DHT22;31471;51.040;14.414;2023-02-28T15:39:22;2.00;99.90
45761;DHT22;31471;51.040;14.414;2023-02-28T15:41:47;1.90;99.90
45761;DHT22;31471;51.040;14.414;2023-02-28T15:44:34;1.90;99.90
45761;DHT22;31471;51.040;14.414;2023-02-28T15:47:16;1.90;99.90
45761;DHT22;31471;51.040;14.414;2023-02-28T15:49:52;1.90;99.90
45761;DHT22;31471;51.040;14.414;2023-02-28T15:52:19;1.90;99.90
45761;DHT22;31471;51.040;14.414;2023-02-28T15:54:46;1.80;99.90
45761;DHT22;31471;51.040;14.414;2023-02-28T15:57:13;1.80;99.90
45761;DHT22;31471;51.040;14.414;2023-02-28T15:59:42;1.70;99.90
45761;DHT22;31471;51.040;14.414;2023-02-28T16:02:17;1.70;99.90
45761;DHT22;31471;51.040;14.414;2023-02-28T16:07:21;1.60;99.90
45761;DHT22;31471;51.040;14.414;2023-02-28T16:09:46;1.50;99.90
45761;DHT22;31471;51.040;14.414;2023-02-28T16:12:13;1.50;99.90
45761;DHT22;31471;51.040;14.414;2023-02-28T16:14:39;1.50;99.90
45761;DHT22;31471;51.040;14.414;2023-02-28T16:17:06;1.50;99.90
45761;DHT22;31471;51.040;14.414;2023-02-28T16:19:34;1.40;99.90
45761;DHT22;31471;51.040;14.414;2023-02-28T16:22:00;1.20;99.90
45761;DHT22;31471;51.040;14.414;2023-02-28T16:24:25;1.10;99.90
45761;DHT22;31471;51.040;14.414;2023-02-28T16:26:51;1.10;99.90
45761;DHT22;31471;51.040;14.414;2023-02-28T16:29:20;1.10;99.90
45761;DHT22;31471;51.040;14.414;2023-02-28T16:31:46;1.00;99.90
45761;DHT22;31471;51.040;14.414;2023-02-28T16:34:12;0.90;99.90
45761;DHT22;31471;51.040;14.414;2023-02-28T16:36:38;0.90;99.90
45761;DHT22;31471;51.040;14.414;2023-02-28T16:39:03;0.80;99.90
45761;DHT22;31471;51.040;14.414;2023-02-28T16:41:30;0.80;99.90
45761;DHT22;31471;51.040;14.414;2023-02-28T16:43:55;0.70;99.90
45761;DHT22;31471;51.040;14.414;2023-02-28T16:46:30;0.60;99.90
45761;DHT22;31471;51.040;14.414;2023-02-28T16:48:56;0.50;99.90
45761;DHT22;31471;51.040;14.414;2023-02-28T16:51:22;0.60;99.90
45761;DHT22;31471;51.040;14.414;2023-02-28T16:53:47;0.60;99.90
45761;DHT22;31471;51.040;14.414;2023-02-28T16:56:14;0.50;99.90
45761;DHT22;31471;51.040;14.414;2023-02-28T16:58:41;0.40;99.90
45761;DHT22;31471;51.040;14.414;2023-02-28T17:01:06;0.40;99.90
45761;DHT22;31471;51.040;14.414;2023-02-28T17:03:32;0.40;99.90
45761;DHT22;31471;51.040;14.414;2023-02-28T17:05:57;0.30;99.90
45761;DHT22;31471;51.040;14.414;2023-02-28T17:08:22;0.30;99.90
45761;DHT22;31471;51.040;14.414;2023-02-28T17:10:48;0.30;99.90
45761;DHT22;31471;51.040;14.414;2023-02-28T17:13:13;0.30;99.90